sensor_id;sensor_type;location;lat;lon;timestamp;temperature;humidity
66013;DHT22;52783;50.502;8.190;2022-09-27T00:01:46;10.60;99.90
66013;DHT22;52783;50.502;8.190;2022-09-27T00:04:11;10.50;99.90
66013;DHT22;52783;50.502;8.190;2022-09-27T00:06:37;10.50;99.90
66013;DHT22;52783;50.502;8.190;2022-09-27T00:09:03;10.50;99.90
66013;DHT22;52783;50.502;8.190;2022-09-27T00:11:37;10.50;99.90
66013;DHT22;52783;50.502;8.190;2022-09-27T00:14:04;10.60;99.90
66013;DHT22;52783;50.502;8.190;2022-09-27T00:16:34;10.50;99.90
66013;DHT22;52783;50.502;8.190;2022-09-27T00:19:02;10.50;99.90
66013;DHT22;52783;50.502;8.190;2022-09-27T00:21:28;10.50;99.90
66013;DHT22;52783;50.502;8.190;2022-09-27T00:23:55;10.50;99.90
66013;DHT22;52783;50.502;8.190;2022-09-27T00:26:20;10.50;99.90
66013;DHT22;52783;50.502;8.190;2022-09-27T00:28:46;10.50;99.90
66013;DHT22;52783;50.502;8.190;2022-09-27T00:31:19;10.50;99.90
66013;DHT22;52783;50.502;8.190;2022-09-27T00:33:47;10.50;99.90
66013;DHT22;52783;50.502;8.190;2022-09-27T00:36:13;10.50;99.90
66013;DHT22;52783;50.502;8.190;2022-09-27T00:38:40;10.50;99.90
66013;DHT22;52783;50.502;8.190;2022-09-27T00:41:06;10.50;99.90
66013;DHT22;52783;50.502;8.190;2022-09-27T00:43:50;10.50;99.90
66013;DHT22;52783;50.502;8.190;2022-09-27T00:46:24;10.50;99.90
66013;DHT22;52783;50.502;8.190;2022-09-27T00:49:05;10.50;99.90
66013;DHT22;52783;50.502;8.190;2022-09-27T00:51:35;10.50;99.90
66013;DHT22;52783;50.502;8.190;2022-09-27T00:54:03;10.50;99.90
66013;DHT22;52783;50.502;8.190;2022-09-27T00:56:30;10.40;99.90
66013;DHT22;52783;50.502;8.190;2022-09-27T00:59:10;10.40;99.90
66013;DHT22;52783;50.502;8.190;2022-09-27T01:01:38;10.40;99.90
66013;DHT22;52783;50.502;8.190;2022-09-27T01:04:07;10.40;99.90
66013;DHT22;52783;50.502;8.190;2022-09-27T01:06:33;10.40;99.90
66013;DHT22;52783;50.502;8.190;2022-09-27T01:08:59;10.40;99.90
66013;DHT22;52783;50.502;8.190;2022-09-27T01:14:15;10.40;99.90
66013;DHT22;52783;50.502;8.190;2022-09-27T01:31:10;10.20;99.90
66013;DHT22;52783;50.502;8.190;2022-09-27T01:34:02;10.20;99.90
66013;DHT22;52783;50.502;8.190;2022-09-27T01:36:31;10.10;99.90
66013;DHT22;52783;50.502;8.190;2022-09-27T01:39:22;10.20;99.90
66013;DHT22;52783;50.502;8.190;2022-09-27T01:42:03;10.30;99.90
66013;DHT22;52783;50.502;8.190;2022-09-27T01:44:39;10.30;99.90
66013;DHT22;52783;50.502;8.190;2022-09-27T01:47:16;10.20;99.90
66013;DHT22;52783;50.502;8.190;2022-09-27T01:49:51;10.20;99.90
66013;DHT22;52783;50.502;8.190;2022-09-27T01:52:21;10.30;99.90
66013;DHT22;52783;50.502;8.190;2022-09-27T01:54:53;10.30;99.90
66013;DHT22;52783;50.502;8.190;2022-09-27T01:57:25;10.20;99.90
66013;DHT22;52783;50.502;8.190;2022-09-27T02:05:17;10.20;99.90
66013;DHT22;52783;50.502;8.190;2022-09-27T02:07:51;10.10;99.90
66013;DHT22;52783;50.502;8.190;2022-09-27T02:10:23;10.10;99.90
66013;DHT22;52783;50.502;8.190;2022-09-27T02:15:43;10.10;99.90
66013;DHT22;52783;50.502;8.190;2022-09-27T02:18:26;10.10;99.90
66013;DHT22;52783;50.502;8.190;2022-09-27T02:20:57;10.10;99.90
66013;DHT22;52783;50.502;8.190;2022-09-27T02:23:45;10.00;99.90
66013;DHT22;52783;50.502;8.190;2022-09-27T02:26:23;10.00;99.90
66013;DHT22;52783;50.502;8.190;2022-09-27T02:28:58;10.10;99.90
66013;DHT22;52783;50.502;8.190;2022-09-27T02:31:25;10.00;99.90
66013;DHT22;52783;50.502;8.190;2022-09-27T02:34:03;10.10;99.90
66013;DHT22;52783;50.502;8.190;2022-09-27T02:36:29;10.10;99.90
66013;DHT22;52783;50.502;8.190;2022-09-27T02:38:55;10.10;99.90
66013;DHT22;52783;50.502;8.190;2022-09-27T02:41:21;10.10;99.90
66013;DHT22;52783;50.502;8.190;2022-09-27T02:43:51;10.10;99.90
66013;DHT22;52783;50.502;8.190;2022-09-27T02:46:30;10.10;99.90
66013;DHT22;52783;50.502;8.190;2022-09-27T02:51:59;9.80;99.90
66013;DHT22;52783;50.502;8.190;2022-09-27T02:54:59;9.80;99.90
66013;DHT22;52783;50.502;8.190;2022-09-27T03:00:28;9.80;99.90
66013;DHT22;52783;50.502;8.190;2022-09-27T03:03:07;9.90;99.90
66013;DHT22;52783;50.502;8.190;2022-09-27T03:06:03;9.80;99.90
66013;DHT22;52783;50.502;8.190;2022-09-27T03:08:29;9.70;99.90
66013;DHT22;52783;50.502;8.190;2022-09-27T03:10:55;9.70;99.90
66013;DHT22;52783;50.502;8.190;2022-09-27T03:13:21;9.70;99.90
66013;DHT22;52783;50.502;8.190;2022-09-27T03:15:46;9.80;99.90
66013;DHT22;52783;50.502;8.190;2022-09-27T03:18:12;9.60;99.90
66013;DHT22;52783;50.502;8.190;2022-09-27T03:20:37;9.60;99.90
66013;DHT22;52783;50.502;8.190;2022-09-27T03:23:03;9.60;99.90
66013;DHT22;52783;50.502;8.190;2022-09-27T03:25:28;9.50;99.90
66013;DHT22;52783;50.502;8.190;2022-09-27T03:27:54;9.50;99.90
66013;DHT22;52783;50.502;8.190;2022-09-27T03:30:19;9.50;99.90
66013;DHT22;52783;50.502;8.190;2022-09-27T03:32:45;9.60;99.90
66013;DHT22;52783;50.502;8.190;2022-09-27T03:35:12;9.60;99.90
66013;DHT22;52783;50.502;8.190;2022-09-27T03:37:38;9.60;99.90
66013;DHT22;52783;50.502;8.190;2022-09-27T03:40:04;9.60;99.90
66013;DHT22;52783;50.502;8.190;2022-09-27T03:42:30;9.60;99.90
66013;DHT22;52783;50.502;8.190;2022-09-27T03:44:55;9.60;99.90
66013;DHT22;52783;50.502;8.190;2022-09-27T03:47:21;9.60;99.90
66013;DHT22;52783;50.502;8.190;2022-09-27T03:49:47;9.60;99.90
66013;DHT22;52783;50.502;8.190;2022-09-27T03:52:13;9.60;99.90
66013;DHT22;52783;50.502;8.190;2022-09-27T03:54:39;9.70;99.90
66013;DHT22;52783;50.502;8.190;2022-09-27T03:57:04;9.70;99.90
66013;DHT22;52783;50.502;8.190;2022-09-27T03:59:30;9.60;99.90
66013;DHT22;52783;50.502;8.190;2022-09-27T04:01:55;9.50;99.90
66013;DHT22;52783;50.502;8.190;2022-09-27T04:04:21;9.60;99.90
66013;DHT22;52783;50.502;8.190;2022-09-27T04:06:47;9.50;99.90
66013;DHT22;52783;50.502;8.190;2022-09-27T04:09:13;9.50;99.90
66013;DHT22;52783;50.502;8.190;2022-09-27T04:11:38;9.40;99.90
66013;DHT22;52783;50.502;8.190;2022-09-27T04:14:04;9.40;99.90
66013;DHT22;52783;50.502;8.190;2022-09-27T04:16:30;9.40;99.90
66013;DHT22;52783;50.502;8.190;2022-09-27T04:18:57;9.40;99.90
66013;DHT22;52783;50.502;8.190;2022-09-27T04:21:22;9.40;99.90
66013;DHT22;52783;50.502;8.190;2022-09-27T04:23:48;9.50;99.90
66013;DHT22;52783;50.502;8.190;2022-09-27T04:26:13;9.40;99.90
66013;DHT22;52783;50.502;8.190;2022-09-27T04:28:39;9.50;99.90
66013;DHT22;52783;50.502;8.190;2022-09-27T04:31:05;9.50;99.90
66013;DHT22;52783;50.502;8.190;2022-09-27T04:33:30;9.40;99.90
66013;DHT22;52783;50.502;8.190;2022-09-27T04:35:56;9.50;99.90
66013;DHT22;52783;50.502;8.190;2022-09-27T04:38:41;9.50;99.90
66013;DHT22;52783;50.502;8.190;2022-09-27T04:41:06;9.40;99.90
66013;DHT22;52783;50.502;8.190;2022-09-27T04:43:32;9.40;99.90
66013;DHT22;52783;50.502;8.190;2022-09-27T04:45:57;9.40;99.90
66013;DHT22;52783;50.502;8.190;2022-09-27T04:48:23;9.40;99.90
66013;DHT22;52783;50.502;8.190;2022-09-27T04:50:55;9.30;99.90
66013;DHT22;52783;50.502;8.190;2022-09-27T04:53:21;9.50;99.90
66013;DHT22;52783;50.502;8.190;2022-09-27T04:55:48;9.30;99.90
66013;DHT22;52783;50.502;8.190;2022-09-27T04:58:14;9.40;99.90
66013;DHT22;52783;50.502;8.190;2022-09-27T05:00:40;9.40;99.90
66013;DHT22;52783;50.502;8.190;2022-09-27T05:03:07;9.40;99.90
66013;DHT22;52783;50.502;8.190;2022-09-27T05:05:33;9.40;99.90
66013;DHT22;52783;50.502;8.190;2022-09-27T05:07:58;9.30;99.90
66013;DHT22;52783;50.502;8.190;2022-09-27T05:10:24;9.30;99.90
66013;DHT22;52783;50.502;8.190;2022-09-27T05:12:50;9.30;99.90
66013;DHT22;52783;50.502;8.190;2022-09-27T05:15:16;9.40;99.90
66013;DHT22;52783;50.502;8.190;2022-09-27T05:17:41;9.40;99.90
66013;DHT22;52783;50.502;8.190;2022-09-27T05:20:07;9.30;99.90
66013;DHT22;52783;50.502;8.190;2022-09-27T05:22:34;9.40;99.90
66013;DHT22;52783;50.502;8.190;2022-09-27T05:25:00;9.40;99.90
66013;DHT22;52783;50.502;8.190;2022-09-27T05:27:25;9.40;99.90
66013;DHT22;52783;50.502;8.190;2022-09-27T05:29:51;9.40;99.90
66013;DHT22;52783;50.502;8.190;2022-09-27T05:32:17;9.40;99.90
66013;DHT22;52783;50.502;8.190;2022-09-27T05:34:43;9.40;99.90
66013;DHT22;52783;50.502;8.190;2022-09-27T05:37:09;9.50;99.90
66013;DHT22;52783;50.502;8.190;2022-09-27T05:39:34;9.40;99.90
66013;DHT22;52783;50.502;8.190;2022-09-27T05:42:00;9.40;99.90
66013;DHT22;52783;50.502;8.190;2022-09-27T05:44:27;9.40;99.90
66013;DHT22;52783;50.502;8.190;2022-09-27T05:46:52;9.30;99.90
66013;DHT22;52783;50.502;8.190;2022-09-27T05:49:18;9.40;99.90
66013;DHT22;52783;50.502;8.190;2022-09-27T05:51:44;9.20;99.90
66013;DHT22;52783;50.502;8.190;2022-09-27T05:54:10;9.30;99.90
66013;DHT22;52783;50.502;8.190;2022-09-27T05:56:35;9.40;99.90
66013;DHT22;52783;50.502;8.190;2022-09-27T05:59:01;9.50;99.90
66013;DHT22;52783;50.502;8.190;2022-09-27T06:01:26;9.50;99.90
66013;DHT22;52783;50.502;8.190;2022-09-27T06:03:52;9.40;99.90
66013;DHT22;52783;50.502;8.190;2022-09-27T06:06:19;9.40;99.90
66013;DHT22;52783;50.502;8.190;2022-09-27T06:08:45;9.50;99.90
66013;DHT22;52783;50.502;8.190;2022-09-27T06:11:11;9.50;99.90
66013;DHT22;52783;50.502;8.190;2022-09-27T06:13:37;9.60;99.90
66013;DHT22;52783;50.502;8.190;2022-09-27T06:16:04;9.50;99.90
66013;DHT22;52783;50.502;8.190;2022-09-27T06:18:30;9.50;99.90
66013;DHT22;52783;50.502;8.190;2022-09-27T06:21:00;9.50;99.90
66013;DHT22;52783;50.502;8.190;2022-09-27T06:23:26;9.50;99.90
66013;DHT22;52783;50.502;8.190;2022-09-27T06:25:52;9.60;99.90
66013;DHT22;52783;50.502;8.190;2022-09-27T06:28:19;9.50;99.90
66013;DHT22;52783;50.502;8.190;2022-09-27T06:30:47;9.50;99.90
66013;DHT22;52783;50.502;8.190;2022-09-27T06:33:16;9.50;99.90
66013;DHT22;52783;50.502;8.190;2022-09-27T06:35:42;9.50;99.90
66013;DHT22;52783;50.502;8.190;2022-09-27T06:38:11;9.40;99.90
66013;DHT22;52783;50.502;8.190;2022-09-27T06:40:37;9.40;99.90
66013;DHT22;52783;50.502;8.190;2022-09-27T06:43:07;9.40;99.90
66013;DHT22;52783;50.502;8.190;2022-09-27T06:45:33;9.50;99.90
66013;DHT22;52783;50.502;8.190;2022-09-27T06:48:04;9.30;99.90
66013;DHT22;52783;50.502;8.190;2022-09-27T06:50:31;9.40;99.90
66013;DHT22;52783;50.502;8.190;2022-09-27T06:52:57;9.40;99.90
66013;DHT22;52783;50.502;8.190;2022-09-27T06:55:23;9.40;99.90
66013;DHT22;52783;50.502;8.190;2022-09-27T06:57:52;9.40;99.90
66013;DHT22;52783;50.502;8.190;2022-09-27T07:00:37;9.50;99.90
66013;DHT22;52783;50.502;8.190;2022-09-27T07:03:02;9.30;99.90
66013;DHT22;52783;50.502;8.190;2022-09-27T07:05:28;9.50;99.90
66013;DHT22;52783;50.502;8.190;2022-09-27T07:07:55;9.30;99.90
66013;DHT22;52783;50.502;8.190;2022-09-27T07:10:23;9.40;99.90
66013;DHT22;52783;50.502;8.190;2022-09-27T07:12:50;9.40;99.90
66013;DHT22;52783;50.502;8.190;2022-09-27T07:15:17;9.30;99.90
66013;DHT22;52783;50.502;8.190;2022-09-27T07:17:44;9.30;99.90
66013;DHT22;52783;50.502;8.190;2022-09-27T07:20:10;9.40;99.90
66013;DHT22;52783;50.502;8.190;2022-09-27T07:22:40;9.50;99.90
66013;DHT22;52783;50.502;8.190;2022-09-27T07:25:07;9.70;99.90
66013;DHT22;52783;50.502;8.190;2022-09-27T07:27:33;9.70;99.90
66013;DHT22;52783;50.502;8.190;2022-09-27T07:29:59;9.80;99.90
66013;DHT22;52783;50.502;8.190;2022-09-27T07:32:25;10.00;99.90
66013;DHT22;52783;50.502;8.190;2022-09-27T07:34:50;10.00;99.90
66013;DHT22;52783;50.502;8.190;2022-09-27T07:37:16;10.30;99.90
66013;DHT22;52783;50.502;8.190;2022-09-27T07:39:42;10.30;99.90
66013;DHT22;52783;50.502;8.190;2022-09-27T07:42:08;10.30;99.90
66013;DHT22;52783;50.502;8.190;2022-09-27T07:44:34;10.10;99.90
66013;DHT22;52783;50.502;8.190;2022-09-27T07:46:59;10.30;99.90
66013;DHT22;52783;50.502;8.190;2022-09-27T07:49:25;10.20;99.90
66013;DHT22;52783;50.502;8.190;2022-09-27T07:51:50;10.10;99.90
66013;DHT22;52783;50.502;8.190;2022-09-27T07:54:16;10.10;99.90
66013;DHT22;52783;50.502;8.190;2022-09-27T07:56:44;9.90;99.90
66013;DHT22;52783;50.502;8.190;2022-09-27T07:59:09;10.00;99.90
66013;DHT22;52783;50.502;8.190;2022-09-27T08:01:35;9.90;99.90
66013;DHT22;52783;50.502;8.190;2022-09-27T08:04:01;9.90;99.90
66013;DHT22;52783;50.502;8.190;2022-09-27T08:06:26;9.80;99.90
66013;DHT22;52783;50.502;8.190;2022-09-27T08:08:52;9.80;99.90
66013;DHT22;52783;50.502;8.190;2022-09-27T08:11:17;9.90;99.90
66013;DHT22;52783;50.502;8.190;2022-09-27T08:13:44;9.90;99.90
66013;DHT22;52783;50.502;8.190;2022-09-27T08:16:10;10.10;99.90
66013;DHT22;52783;50.502;8.190;2022-09-27T08:18:37;10.10;99.90
66013;DHT22;52783;50.502;8.190;2022-09-27T08:21:03;10.20;99.90
66013;DHT22;52783;50.502;8.190;2022-09-27T08:23:29;10.40;99.90
66013;DHT22;52783;50.502;8.190;2022-09-27T08:25:56;10.70;99.90
66013;DHT22;52783;50.502;8.190;2022-09-27T08:28:23;10.70;99.90
66013;DHT22;52783;50.502;8.190;2022-09-27T08:30:49;10.70;99.90
66013;DHT22;52783;50.502;8.190;2022-09-27T08:33:15;10.90;99.90
66013;DHT22;52783;50.502;8.190;2022-09-27T08:35:41;11.20;99.90
66013;DHT22;52783;50.502;8.190;2022-09-27T08:38:08;11.30;99.90
66013;DHT22;52783;50.502;8.190;2022-09-27T08:40:53;11.30;99.90
66013;DHT22;52783;50.502;8.190;2022-09-27T08:43:29;11.70;99.90
66013;DHT22;52783;50.502;8.190;2022-09-27T08:46:10;11.70;99.90
66013;DHT22;52783;50.502;8.190;2022-09-27T08:48:39;11.90;98.70
66013;DHT22;52783;50.502;8.190;2022-09-27T08:51:10;12.00;99.30
66013;DHT22;52783;50.502;8.190;2022-09-27T08:53:44;12.30;98.40
66013;DHT22;52783;50.502;8.190;2022-09-27T08:56:12;12.10;97.80
66013;DHT22;52783;50.502;8.190;2022-09-27T08:58:44;12.10;97.50
66013;DHT22;52783;50.502;8.190;2022-09-27T09:01:16;13.00;97.10
66013;DHT22;52783;50.502;8.190;2022-09-27T09:03:48;13.30;93.30
66013;DHT22;52783;50.502;8.190;2022-09-27T09:06:27;13.80;92.90
66013;DHT22;52783;50.502;8.190;2022-09-27T09:12:12;13.10;92.70
66013;DHT22;52783;50.502;8.190;2022-09-27T09:21:04;12.80;94.30
66013;DHT22;52783;50.502;8.190;2022-09-27T09:26:38;12.50;93.80
66013;DHT22;52783;50.502;8.190;2022-09-27T09:31:49;11.90;95.70
66013;DHT22;52783;50.502;8.190;2022-09-27T09:34:25;12.00;95.40
66013;DHT22;52783;50.502;8.190;2022-09-27T09:37:01;11.70;96.80
66013;DHT22;52783;50.502;8.190;2022-09-27T09:39:44;11.50;97.00
66013;DHT22;52783;50.502;8.190;2022-09-27T09:42:26;11.80;96.50
66013;DHT22;52783;50.502;8.190;2022-09-27T09:47:41;12.10;96.60
66013;DHT22;52783;50.502;8.190;2022-09-27T09:50:18;12.20;96.10
66013;DHT22;52783;50.502;8.190;2022-09-27T09:52:53;12.00;95.80
66013;DHT22;52783;50.502;8.190;2022-09-27T09:55:23;12.30;96.50
66013;DHT22;52783;50.502;8.190;2022-09-27T10:00:26;12.70;93.40
66013;DHT22;52783;50.502;8.190;2022-09-27T10:02:54;12.60;93.20
66013;DHT22;52783;50.502;8.190;2022-09-27T10:05:22;12.70;93.60
66013;DHT22;52783;50.502;8.190;2022-09-27T10:07:50;12.60;93.00
66013;DHT22;52783;50.502;8.190;2022-09-27T10:10:18;12.70;92.90
66013;DHT22;52783;50.502;8.190;2022-09-27T10:12:45;12.80;91.40
66013;DHT22;52783;50.502;8.190;2022-09-27T10:15:19;13.00;91.50
66013;DHT22;52783;50.502;8.190;2022-09-27T10:17:48;13.10;92.10
66013;DHT22;52783;50.502;8.190;2022-09-27T10:20:29;12.80;91.90
66013;DHT22;52783;50.502;8.190;2022-09-27T10:23:04;12.60;91.30
66013;DHT22;52783;50.502;8.190;2022-09-27T10:25:48;12.40;92.10
66013;DHT22;52783;50.502;8.190;2022-09-27T10:28:39;12.40;92.40
66013;DHT22;52783;50.502;8.190;2022-09-27T10:31:09;12.00;92.40
66013;DHT22;52783;50.502;8.190;2022-09-27T10:33:56;11.90;94.40
66013;DHT22;52783;50.502;8.190;2022-09-27T10:36:29;11.80;96.50
66013;DHT22;52783;50.502;8.190;2022-09-27T10:38:57;11.70;97.00
66013;DHT22;52783;50.502;8.190;2022-09-27T10:41:37;11.50;98.60
66013;DHT22;52783;50.502;8.190;2022-09-27T10:46:49;11.30;99.90
66013;DHT22;52783;50.502;8.190;2022-09-27T10:49:24;11.50;99.90
66013;DHT22;52783;50.502;8.190;2022-09-27T10:51:56;12.00;99.90
66013;DHT22;52783;50.502;8.190;2022-09-27T10:54:31;12.20;99.90
66013;DHT22;52783;50.502;8.190;2022-09-27T10:57:03;12.70;99.90
66013;DHT22;52783;50.502;8.190;2022-09-27T10:59:32;13.10;99.90
66013;DHT22;52783;50.502;8.190;2022-09-27T11:01:59;13.40;99.90
66013;DHT22;52783;50.502;8.190;2022-09-27T11:04:36;13.10;95.20
66013;DHT22;52783;50.502;8.190;2022-09-27T11:07:17;13.20;97.50
66013;DHT22;52783;50.502;8.190;2022-09-27T11:09:55;13.30;94.90
66013;DHT22;52783;50.502;8.190;2022-09-27T11:12:28;13.20;92.70
66013;DHT22;52783;50.502;8.190;2022-09-27T11:15:01;13.10;95.00
66013;DHT22;52783;50.502;8.190;2022-09-27T11:20:35;13.40;94.00
66013;DHT22;52783;50.502;8.190;2022-09-27T11:33:49;12.50;95.60
66013;DHT22;52783;50.502;8.190;2022-09-27T11:39:55;12.20;97.00
66013;DHT22;52783;50.502;8.190;2022-09-27T11:43:05;12.00;97.70
66013;DHT22;52783;50.502;8.190;2022-09-27T11:45:54;11.90;98.80
66013;DHT22;52783;50.502;8.190;2022-09-27T11:51:19;12.40;98.60
66013;DHT22;52783;50.502;8.190;2022-09-27T11:56:58;12.50;96.00
66013;DHT22;52783;50.502;8.190;2022-09-27T11:59:49;12.70;98.00
66013;DHT22;52783;50.502;8.190;2022-09-27T12:10:52;13.50;95.00
66013;DHT22;52783;50.502;8.190;2022-09-27T12:13:32;13.60;94.40
66013;DHT22;52783;50.502;8.190;2022-09-27T12:15:59;13.90;92.90
66013;DHT22;52783;50.502;8.190;2022-09-27T12:20:54;14.00;91.50
66013;DHT22;52783;50.502;8.190;2022-09-27T12:23:26;13.80;91.40
66013;DHT22;52783;50.502;8.190;2022-09-27T12:25:57;13.60;92.30
66013;DHT22;52783;50.502;8.190;2022-09-27T12:31:10;13.00;91.40
66013;DHT22;52783;50.502;8.190;2022-09-27T12:33:53;12.80;88.50
66013;DHT22;52783;50.502;8.190;2022-09-27T12:36:25;12.70;88.00
66013;DHT22;52783;50.502;8.190;2022-09-27T12:38:54;12.30;87.10
66013;DHT22;52783;50.502;8.190;2022-09-27T12:41:22;12.20;91.30
66013;DHT22;52783;50.502;8.190;2022-09-27T12:43:49;12.00;90.80
66013;DHT22;52783;50.502;8.190;2022-09-27T12:52:02;11.40;94.00
66013;DHT22;52783;50.502;8.190;2022-09-27T12:57:41;10.80;95.00
66013;DHT22;52783;50.502;8.190;2022-09-27T13:00:21;10.50;95.40
66013;DHT22;52783;50.502;8.190;2022-09-27T13:03:15;10.70;96.50
66013;DHT22;52783;50.502;8.190;2022-09-27T13:09:07;10.90;96.70
66013;DHT22;52783;50.502;8.190;2022-09-27T13:14:23;11.20;97.70
66013;DHT22;52783;50.502;8.190;2022-09-27T13:16:49;11.30;96.10
66013;DHT22;52783;50.502;8.190;2022-09-27T13:22:00;11.80;95.60
66013;DHT22;52783;50.502;8.190;2022-09-27T13:24:38;12.00;95.00
66013;DHT22;52783;50.502;8.190;2022-09-27T13:32:37;12.70;92.80
66013;DHT22;52783;50.502;8.190;2022-09-27T13:35:18;12.50;92.70
66013;DHT22;52783;50.502;8.190;2022-09-27T13:37:47;12.50;93.80
66013;DHT22;52783;50.502;8.190;2022-09-27T13:40:23;12.50;92.90
66013;DHT22;52783;50.502;8.190;2022-09-27T13:43:16;12.60;93.30
66013;DHT22;52783;50.502;8.190;2022-09-27T13:45:54;12.50;92.70
66013;DHT22;52783;50.502;8.190;2022-09-27T13:54:35;12.80;92.60
66013;DHT22;52783;50.502;8.190;2022-09-27T13:56:53;12.60;93.40
66013;DHT22;52783;50.502;8.190;2022-09-27T13:59:25;12.80;93.80
66013;DHT22;52783;50.502;8.190;2022-09-27T14:02:22;12.70;92.00
66013;DHT22;52783;50.502;8.190;2022-09-27T14:04:49;12.90;93.10
66013;DHT22;52783;50.502;8.190;2022-09-27T14:07:25;13.00;91.90
66013;DHT22;52783;50.502;8.190;2022-09-27T14:09:53;12.90;92.90
66013;DHT22;52783;50.502;8.190;2022-09-27T14:12:24;12.80;91.60
66013;DHT22;52783;50.502;8.190;2022-09-27T14:14:52;13.00;91.90
66013;DHT22;52783;50.502;8.190;2022-09-27T14:17:19;12.90;92.30
66013;DHT22;52783;50.502;8.190;2022-09-27T14:19:45;13.20;93.20
66013;DHT22;52783;50.502;8.190;2022-09-27T14:22:15;13.10;91.60
66013;DHT22;52783;50.502;8.190;2022-09-27T14:24:45;13.10;89.80
66013;DHT22;52783;50.502;8.190;2022-09-27T14:27:25;13.10;89.00
66013;DHT22;52783;50.502;8.190;2022-09-27T14:29:55;13.00;89.00
66013;DHT22;52783;50.502;8.190;2022-09-27T14:32:32;12.90;88.50
66013;DHT22;52783;50.502;8.190;2022-09-27T14:35:13;13.00;88.30
66013;DHT22;52783;50.502;8.190;2022-09-27T14:38:28;12.80;86.40
66013;DHT22;52783;50.502;8.190;2022-09-27T14:40:58;12.70;87.90
66013;DHT22;52783;50.502;8.190;2022-09-27T14:43:24;12.50;85.00
66013;DHT22;52783;50.502;8.190;2022-09-27T14:45:52;12.30;86.10
66013;DHT22;52783;50.502;8.190;2022-09-27T14:48:30;12.40;88.80
66013;DHT22;52783;50.502;8.190;2022-09-27T14:51:48;12.40;89.40
66013;DHT22;52783;50.502;8.190;2022-09-27T14:53:52;12.30;88.30
66013;DHT22;52783;50.502;8.190;2022-09-27T14:56:24;12.30;87.50
66013;DHT22;52783;50.502;8.190;2022-09-27T14:58:59;12.40;88.90
66013;DHT22;52783;50.502;8.190;2022-09-27T15:01:27;12.30;86.70
66013;DHT22;52783;50.502;8.190;2022-09-27T15:03:55;12.30;88.50
66013;DHT22;52783;50.502;8.190;2022-09-27T15:06:21;12.30;87.70
66013;DHT22;52783;50.502;8.190;2022-09-27T15:08:49;12.40;88.50
66013;DHT22;52783;50.502;8.190;2022-09-27T15:11:16;12.40;91.10
66013;DHT22;52783;50.502;8.190;2022-09-27T15:13:44;12.40;91.70
66013;DHT22;52783;50.502;8.190;2022-09-27T15:16:16;12.30;91.40
66013;DHT22;52783;50.502;8.190;2022-09-27T15:18:46;12.50;91.60
66013;DHT22;52783;50.502;8.190;2022-09-27T15:21:14;12.40;90.80
66013;DHT22;52783;50.502;8.190;2022-09-27T15:23:42;12.40;91.60
66013;DHT22;52783;50.502;8.190;2022-09-27T15:26:21;12.40;91.90
66013;DHT22;52783;50.502;8.190;2022-09-27T15:28:50;12.50;91.80
66013;DHT22;52783;50.502;8.190;2022-09-27T15:31:28;12.40;90.40
66013;DHT22;52783;50.502;8.190;2022-09-27T15:33:55;12.30;91.30
66013;DHT22;52783;50.502;8.190;2022-09-27T15:39:20;12.40;91.30
66013;DHT22;52783;50.502;8.190;2022-09-27T15:42:12;12.30;91.80
66013;DHT22;52783;50.502;8.190;2022-09-27T15:44:47;12.20;92.50
66013;DHT22;52783;50.502;8.190;2022-09-27T15:52:51;11.80;95.90
66013;DHT22;52783;50.502;8.190;2022-09-27T15:55:27;11.80;96.30
66013;DHT22;52783;50.502;8.190;2022-09-27T15:58:05;11.60;97.20
66013;DHT22;52783;50.502;8.190;2022-09-27T16:00:33;11.60;97.80
66013;DHT22;52783;50.502;8.190;2022-09-27T16:03:00;11.60;97.90
66013;DHT22;52783;50.502;8.190;2022-09-27T16:05:26;11.60;97.60
66013;DHT22;52783;50.502;8.190;2022-09-27T16:07:53;11.50;97.40
66013;DHT22;52783;50.502;8.190;2022-09-27T16:10:21;11.10;97.90
66013;DHT22;52783;50.502;8.190;2022-09-27T16:12:47;10.90;99.60
66013;DHT22;52783;50.502;8.190;2022-09-27T16:15:15;10.70;99.90
66013;DHT22;52783;50.502;8.190;2022-09-27T16:17:41;10.50;99.90
66013;DHT22;52783;50.502;8.190;2022-09-27T16:20:23;10.30;99.90
66013;DHT22;52783;50.502;8.190;2022-09-27T16:22:51;10.20;99.90
66013;DHT22;52783;50.502;8.190;2022-09-27T16:25:17;10.40;99.90
66013;DHT22;52783;50.502;8.190;2022-09-27T16:27:43;10.20;99.70
66013;DHT22;52783;50.502;8.190;2022-09-27T16:30:09;10.10;99.90
66013;DHT22;52783;50.502;8.190;2022-09-27T16:32:39;10.10;99.90
66013;DHT22;52783;50.502;8.190;2022-09-27T16:35:05;10.10;99.90
66013;DHT22;52783;50.502;8.190;2022-09-27T16:37:33;10.20;99.90
66013;DHT22;52783;50.502;8.190;2022-09-27T16:39:58;10.20;99.90
66013;DHT22;52783;50.502;8.190;2022-09-27T16:42:24;10.20;99.90
66013;DHT22;52783;50.502;8.190;2022-09-27T16:44:51;10.30;99.90
66013;DHT22;52783;50.502;8.190;2022-09-27T16:47:18;10.30;99.90
66013;DHT22;52783;50.502;8.190;2022-09-27T16:49:44;10.30;99.90
66013;DHT22;52783;50.502;8.190;2022-09-27T16:52:29;10.20;99.90
66013;DHT22;52783;50.502;8.190;2022-09-27T16:54:58;10.20;99.90
66013;DHT22;52783;50.502;8.190;2022-09-27T16:57:25;10.20;99.90
66013;DHT22;52783;50.502;8.190;2022-09-27T16:59:53;10.10;99.90
66013;DHT22;52783;50.502;8.190;2022-09-27T17:02:19;10.10;99.90
66013;DHT22;52783;50.502;8.190;2022-09-27T17:04:45;10.20;99.90
66013;DHT22;52783;50.502;8.190;2022-09-27T17:07:11;10.10;99.90
66013;DHT22;52783;50.502;8.190;2022-09-27T17:09:36;10.00;99.90
66013;DHT22;52783;50.502;8.190;2022-09-27T17:12:02;10.00;99.90
66013;DHT22;52783;50.502;8.190;2022-09-27T17:14:27;9.90;99.90
66013;DHT22;52783;50.502;8.190;2022-09-27T17:16:53;9.80;99.90
66013;DHT22;52783;50.502;8.190;2022-09-27T17:19:19;9.80;99.90
66013;DHT22;52783;50.502;8.190;2022-09-27T17:21:45;9.80;99.90
66013;DHT22;52783;50.502;8.190;2022-09-27T17:24:11;9.80;99.90
66013;DHT22;52783;50.502;8.190;2022-09-27T17:26:37;9.80;99.90
66013;DHT22;52783;50.502;8.190;2022-09-27T17:29:02;9.70;99.90
66013;DHT22;52783;50.502;8.190;2022-09-27T17:31:29;9.70;99.90
66013;DHT22;52783;50.502;8.190;2022-09-27T17:33:56;9.70;99.90
66013;DHT22;52783;50.502;8.190;2022-09-27T17:36:26;9.60;99.90
66013;DHT22;52783;50.502;8.190;2022-09-27T17:38:53;9.60;99.90
66013;DHT22;52783;50.502;8.190;2022-09-27T17:41:21;9.60;99.90
66013;DHT22;52783;50.502;8.190;2022-09-27T17:43:52;9.60;99.90
66013;DHT22;52783;50.502;8.190;2022-09-27T17:46:21;9.60;99.90
66013;DHT22;52783;50.502;8.190;2022-09-27T17:48:47;9.60;99.90
66013;DHT22;52783;50.502;8.190;2022-09-27T17:51:34;9.60;99.90
66013;DHT22;52783;50.502;8.190;2022-09-27T17:54:00;9.60;99.90
66013;DHT22;52783;50.502;8.190;2022-09-27T17:56:25;9.60;99.90
66013;DHT22;52783;50.502;8.190;2022-09-27T17:58:53;9.60;99.90
66013;DHT22;52783;50.502;8.190;2022-09-27T18:01:21;9.50;99.90
66013;DHT22;52783;50.502;8.190;2022-09-27T18:03:47;9.50;99.90
66013;DHT22;52783;50.502;8.190;2022-09-27T18:06:16;9.50;99.90